Terminal Aerodrome Forecast
Issued by NWS Tiyan, Guam

Home | Current Version | Previous Version | Text Only | Print | Product List | Glossary On
Versions: 1 2 3 4 5 6 7 8 9 10 11 12 13 14
000
FTPQ31 PGUM 251445 AAM
TAFGUM
TAF AMD
PGUM 251445Z 2515/2618 10008KT P6SM VCTS SCT018CB SCT030 BKN120
      TEMPO 2515/2518 3SM +SHRA SCT015 OVC020
     FM252100 09011KT P6SM VCSH SCT018 SCT030 BKN120=

USA.gov is the U.S. government's official web portal to all federal, state and local government web resources and services.